Time;durP1;ratioP1;P1;durP2;ratioP2;P2;SDS_P1;SDS_P2;PMS_P1;PMS_P2;Temp;Humidity;BMP_temperature;BMP_pressure;BME280_temperature;BME280_humidity;BME280_pressure;Samples;Min_cycle;Max_cycle;Signal;HPM_P1;HPM_P2
2022/06/27 00:01:13;;;;;;;3.20;2.90;;;;;;;20.89;60.71;98431.22;106370;1274;24431;-78
2022/06/27 00:03:42;;;;;;;3.80;3.50;;;;;;;20.85;60.80;98430.86;107335;1274;137282;-78
2022/06/27 00:06:09;;;;;;;4.60;3.10;;;;;;;20.82;60.84;98433.46;106644;1275;22878;-78
2022/06/27 00:08:36;;;;;;;7.20;3.60;;;;;;;20.81;60.90;98433.33;106363;1274;25333;-78
2022/06/27 00:11:04;;;;;;;4.50;3.50;;;;;;;20.82;61.10;98435.25;106773;1277;137102;-78
2022/06/27 00:13:30;;;;;;;3.50;3.20;;;;;;;20.82;61.22;98438.20;106704;1277;22860;-78
2022/06/27 00:15:56;;;;;;;6.30;3.30;;;;;;;20.81;61.24;98437.65;106104;1277;137390;-78
2022/06/27 00:18:22;;;;;;;4.00;3.60;;;;;;;20.79;61.31;98438.70;107019;1274;23279;-78
2022/06/27 00:20:48;;;;;;;3.00;2.80;;;;;;;20.75;61.45;98439.95;106521;1276;24329;-78
2022/06/27 00:23:15;;;;;;;5.10;3.20;;;;;;;20.72;61.69;98439.80;106491;1274;137197;-78
2022/06/27 00:25:41;;;;;;;3.60;3.10;;;;;;;20.67;61.75;98440.40;106134;1274;23165;-78
2022/06/27 00:28:07;;;;;;;3.60;3.30;;;;;;;20.62;61.90;98437.46;106039;1274;137356;-78
2022/06/27 00:30:34;;;;;;;3.80;3.40;;;;;;;20.60;61.99;98440.39;106985;1277;22550;-78
2022/06/27 00:33:00;;;;;;;3.80;3.30;;;;;;;20.56;62.24;98439.98;106167;1277;23045;-78
2022/06/27 00:35:27;;;;;;;3.50;3.20;;;;;;;20.51;62.42;98440.69;106498;1277;137219;-78
2022/06/27 00:37:53;;;;;;;3.60;3.30;;;;;;;20.49;62.50;98442.68;106312;1274;22857;-78
2022/06/27 00:40:19;;;;;;;4.80;3.40;;;;;;;20.46;62.58;98441.35;106412;1274;137672;-79
2022/06/27 00:42:47;;;;;;;4.80;3.60;;;;;;;20.44;62.66;98436.02;106839;1274;22539;-78
2022/06/27 00:45:13;;;;;;;8.30;3.60;;;;;;;20.42;62.82;98436.73;106443;1274;22568;-78
2022/06/27 00:47:39;;;;;;;5.30;3.50;;;;;;;20.40;62.92;98436.38;106416;1274;137241;-78
2022/06/27 00:50:07;;;;;;;9.10;4.00;;;;;;;20.37;63.01;98433.92;106114;1277;24418;-80
2022/06/27 00:52:34;;;;;;;4.10;3.40;;;;;;;20.34;63.20;98438.36;106566;1276;137093;-77
2022/06/27 00:55:00;;;;;;;5.00;3.30;;;;;;;20.29;63.25;98439.79;106247;1277;22537;-78
2022/06/27 00:57:28;;;;;;;4.90;3.30;;;;;;;20.26;63.50;98437.02;106059;1274;25367;-78
2022/06/27 00:59:54;;;;;;;3.40;3.00;;;;;;;20.22;63.53;98440.17;106438;1274;136983;-77
2022/06/27 01:02:21;;;;;;;5.40;3.40;;;;;;;20.18;63.63;98439.30;106355;1274;25229;-78
2022/06/27 01:04:47;;;;;;;3.00;2.70;;;;;;;20.16;63.90;98446.44;106607;1274;137539;-78
2022/06/27 01:07:14;;;;;;;8.90;3.80;;;;;;;20.13;64.07;98447.59;108692;1274;22518;-78
2022/06/27 01:09:43;;;;;;;5.40;3.60;;;;;;;20.12;64.11;98449.88;107015;1277;137971;-78
2022/06/27 01:12:09;;;;;;;4.50;3.20;;;;;;;20.11;64.20;98450.79;106049;1277;24255;-78
2022/06/27 01:14:36;;;;;;;4.50;3.60;;;;;;;20.07;64.17;98446.71;106365;1277;22556;-79
2022/06/27 01:17:03;;;;;;;4.40;3.40;;;;;;;20.05;64.25;98447.69;105944;1277;137499;-80
2022/06/27 01:19:30;;;;;;;3.90;3.60;;;;;;;20.03;64.38;98448.08;106257;1277;22565;-78
2022/06/27 01:21:58;;;;;;;4.10;3.40;;;;;;;19.99;64.41;98451.68;106178;1274;137398;-79
2022/06/27 01:24:26;;;;;;;5.70;3.40;;;;;;;19.95;64.60;98452.32;106481;1274;24286;-78
2022/06/27 01:26:54;;;;;;;5.50;3.70;;;;;;;19.91;64.62;98450.41;106579;1274;22543;-79
2022/06/27 01:29:21;;;;;;;4.30;3.30;;;;;;;19.88;64.84;98450.02;106281;1277;137947;-79
2022/06/27 01:31:48;;;;;;;4.30;3.50;;;;;;;19.85;64.99;98449.77;106088;1277;25258;-79
2022/06/27 01:34:16;;;;;;;4.80;3.30;;;;;;;19.81;65.09;98447.72;106251;1277;137790;-79
2022/06/27 01:36:46;;;;;;;5.00;3.50;;;;;;;19.76;65.23;98446.55;106202;1277;22547;-78
2022/06/27 01:39:23;;;;;;;6.70;3.50;;;;;;;19.71;65.61;98445.52;106374;1276;22553;-78
2022/06/27 01:41:51;;;;;;;4.10;3.80;;;;;;;19.66;65.81;98445.88;106848;1276;138344;-77
2022/06/27 01:44:20;;;;;;;5.20;3.70;;;;;;;19.63;65.82;98444.13;106207;1274;26509;-79
2022/06/27 01:46:51;;;;;;;6.30;3.80;;;;;;;19.59;65.97;98444.37;106224;1274;137824;-79
2022/06/27 01:49:18;;;;;;;6.80;3.20;;;;;;;19.55;66.08;98439.29;106000;1277;22550;-79
2022/06/27 01:51:50;;;;;;;5.00;3.50;;;;;;;19.53;66.32;98438.90;106084;1277;138100;-79
2022/06/27 01:54:20;;;;;;;8.60;4.10;;;;;;;19.51;66.45;98435.33;106036;1277;22700;-79
2022/06/27 01:56:49;;;;;;;6.80;4.20;;;;;;;19.51;66.43;98436.94;106128;1277;22566;-78
2022/06/27 01:59:19;;;;;;;4.40;3.80;;;;;;;19.49;66.65;98433.59;106318;1277;137577;-78
2022/06/27 02:01:45;;;;;;;9.00;4.40;;;;;;;19.46;66.65;98437.78;105908;1277;22686;-78
2022/06/27 02:04:13;;;;;;;8.40;4.30;;;;;;;19.43;66.85;98435.92;106065;1274;138665;-78
2022/06/27 02:06:41;;;;;;;6.50;4.40;;;;;;;19.39;66.93;98437.42;105868;1277;22555;-78
2022/06/27 02:09:12;;;;;;;11.80;4.40;;;;;;;19.36;67.18;98436.21;106009;1277;22567;-77
2022/06/27 02:11:39;;;;;;;7.30;4.40;;;;;;;19.34;67.13;98440.21;105805;1277;138653;-80
2022/06/27 02:14:10;;;;;;;7.30;4.30;;;;;;;19.32;67.29;98442.14;105764;1280;22705;-80
2022/06/27 02:16:39;;;;;;;7.90;4.50;;;;;;;19.28;67.51;98446.89;105812;1279;137671;-78
2022/06/27 02:19:06;;;;;;;7.60;4.20;;;;;;;19.24;67.55;98450.11;105796;1280;22572;-78
2022/06/27 02:21:32;;;;;;;6.70;4.00;;;;;;;19.20;67.71;98454.99;106225;1277;23445;-78
2022/06/27 02:23:59;;;;;;;6.80;4.20;;;;;;;19.17;67.95;98454.34;106025;1277;137023;-79
2022/06/27 02:26:30;;;;;;;6.20;4.20;;;;;;;19.13;67.91;98454.72;106388;1277;26574;-79
2022/06/27 02:28:59;;;;;;;4.70;4.20;;;;;;;19.10;68.03;98454.71;105892;1279;138554;-77
2022/06/27 02:31:45;;;;;;;5.10;4.20;;;;;;;19.05;68.39;98453.30;105960;1279;22571;-78
2022/06/27 02:34:12;;;;;;;6.30;4.20;;;;;;;19.01;68.54;98448.23;105780;1278;138555;-78
2022/06/27 02:36:41;;;;;;;4.80;4.10;;;;;;;18.99;68.73;98447.70;106321;1276;24262;-78
2022/06/27 02:39:10;;;;;;;6.90;4.30;;;;;;;18.95;68.81;98444.80;106276;1277;24409;-78
2022/06/27 02:41:40;;;;;;;6.70;4.20;;;;;;;18.91;68.91;98442.11;106584;1277;137759;-78
2022/06/27 02:44:11;;;;;;;8.30;4.80;;;;;;;18.90;68.92;98442.77;106053;1277;25405;-78
2022/06/27 02:46:39;;;;;;;5.80;4.00;;;;;;;18.90;68.98;98444.38;106233;1277;138017;-79
2022/06/27 02:49:07;;;;;;;6.40;3.90;;;;;;;18.92;69.07;98439.00;106024;1277;25336;-78
2022/06/27 02:51:46;;;;;;;5.40;4.10;;;;;;;18.91;69.25;98437.52;106175;1277;22708;-78
2022/06/27 02:54:19;;;;;;;4.60;4.20;;;;;;;18.90;69.18;98436.80;105952;1277;22569;-80
2022/06/27 02:57:02;;;;;;;4.80;4.20;;;;;;;18.89;69.36;98434.41;106209;1277;22540;-78
2022/06/27 02:59:37;;;;;;;8.90;4.00;;;;;;;18.86;69.40;98431.58;106594;1276;138157;-78
2022/06/27 03:02:08;;;;;;;4.40;4.00;;;;;;;18.88;69.38;98439.48;106340;1277;31786;-78
2022/06/27 03:05:01;;;;;;;6.20;4.30;;;;;;;18.92;69.38;98448.15;105893;1277;137559;-79
2022/06/27 03:07:29;;;;;;;;;;;;;;;18.94;69.37;98453.02;106408;1276;22554;-79
2022/06/27 03:10:05;;;;;;;5.80;4.10;;;;;;;18.97;69.51;98453.81;106215;1277;123723;-78
2022/06/27 03:12:32;;;;;;;6.80;5.00;;;;;;;18.98;69.48;98450.88;106286;1276;24420;-78
2022/06/27 03:14:59;;;;;;;7.00;4.80;;;;;;;18.98;69.36;98447.02;106517;1277;25430;-79
2022/06/27 03:17:25;;;;;;;6.80;4.40;;;;;;;18.97;69.38;98446.68;106393;1274;137195;-79
2022/06/27 03:20:06;;;;;;;5.30;4.10;;;;;;;18.97;69.30;98450.28;106584;1274;22971;-78
2022/06/27 03:22:55;;;;;;;7.50;4.40;;;;;;;18.97;69.52;98451.33;106266;1277;137424;-78
2022/06/27 03:25:22;;;;;;;7.10;4.30;;;;;;;18.97;69.55;98450.77;106304;1277;22557;-78
2022/06/27 03:27:50;;;;;;;5.90;4.60;;;;;;;18.97;69.72;98450.71;105890;1277;137771;-79
2022/06/27 03:30:16;;;;;;;6.00;4.40;;;;;;;18.96;69.63;98449.80;105867;1277;22541;-78
2022/06/27 03:32:43;;;;;;;5.00;4.40;;;;;;;18.95;69.71;98453.73;106264;1274;23305;-79
2022/06/27 03:35:11;;;;;;;5.60;4.80;;;;;;;18.96;69.89;98454.48;106384;1274;137850;-79
2022/06/27 03:37:37;;;;;;;6.10;3.90;;;;;;;18.98;69.87;98457.66;106304;1275;25560;-79
2022/06/27 03:40:05;;;;;;;8.30;4.70;;;;;;;19.00;69.88;98461.73;105999;1277;137773;-78
2022/06/27 03:42:34;;;;;;;8.90;5.10;;;;;;;19.01;70.07;98463.31;106074;1277;22565;-78
2022/06/27 03:45:00;;;;;;;7.30;5.00;;;;;;;19.03;70.06;98464.52;106185;1277;22579;-78
2022/06/27 03:47:27;;;;;;;7.30;4.80;;;;;;;19.03;70.04;98467.79;106218;1277;137072;-78
2022/06/27 03:50:15;;;;;;;7.50;4.60;;;;;;;19.06;70.00;98470.14;106286;1277;24521;-78
2022/06/27 03:52:42;;;;;;;6.70;4.90;;;;;;;19.06;70.00;98469.14;106415;1274;137217;-79
2022/06/27 03:55:10;;;;;;;6.40;4.70;;;;;;;19.08;69.91;98474.45;106782;1274;23406;-79
2022/06/27 03:57:48;;;;;;;6.10;4.90;;;;;;;19.11;69.93;98472.53;106309;1274;138208;-78
2022/06/27 04:00:33;;;;;;;8.70;5.00;;;;;;;19.17;69.93;98475.80;106669;1274;25321;-78
2022/06/27 04:03:02;;;;;;;7.10;5.00;;;;;;;19.22;70.05;98479.42;106436;1277;22742;-78
2022/06/27 04:05:40;;;;;;;5.40;4.10;;;;;;;19.28;69.77;98481.09;106355;1277;137258;-79
2022/06/27 04:08:07;;;;;;;7.00;5.10;;;;;;;19.30;69.91;98479.02;106647;1277;22563;-77
2022/06/27 04:10:36;;;;;;;;;;;;;;;19.31;69.80;98477.61;106375;1277;137170;-78
2022/06/27 04:13:02;;;;;;;5.80;4.50;;;;;;;19.32;69.79;98480.58;106498;1277;22592;-78
2022/06/27 04:15:38;;;;;;;8.60;4.90;;;;;;;19.38;69.62;98478.44;105945;1277;137996;-78
2022/06/27 04:18:20;;;;;;;9.00;4.70;;;;;;;19.44;69.61;98477.78;106516;1275;24276;-78
2022/06/27 04:21:00;;;;;;;6.90;5.10;;;;;;;19.50;69.47;98471.30;106127;1274;22605;-78
2022/06/27 04:23:40;;;;;;;6.00;3.90;;;;;;;19.55;69.39;98469.68;106458;1277;138380;-78
2022/06/27 04:26:21;;;;;;;5.70;4.90;;;;;;;19.60;69.38;98471.80;106614;1277;22563;-78
2022/06/27 04:28:47;;;;;;;5.80;4.70;;;;;;;19.66;69.38;98478.33;106429;1277;137234;-78
2022/06/27 04:31:14;;;;;;;7.80;4.60;;;;;;;19.71;69.35;98482.20;106407;1277;23084;-78
2022/06/27 04:33:44;;;;;;;;;;;;;;;19.77;69.09;98483.95;106518;1277;137952;-78
2022/06/27 04:36:11;;;;;;;6.60;4.70;;;;;;;19.81;69.14;98487.14;106319;1274;22800;-78
2022/06/27 04:38:38;;;;;;;6.10;4.70;;;;;;;19.85;68.92;98489.27;106121;1274;24286;-78
2022/06/27 04:41:34;;;;;;;6.00;4.70;;;;;;;19.89;68.80;98496.33;106873;1274;137471;-78
2022/06/27 04:44:01;;;;;;;6.20;4.90;;;;;;;19.95;68.70;98496.66;106481;1277;25333;-78
2022/06/27 04:46:28;;;;;;;6.60;5.00;;;;;;;19.99;68.64;98497.02;106666;1277;137253;-78
2022/06/27 04:49:18;;;;;;;5.80;4.80;;;;;;;20.05;68.78;98496.90;106520;1277;25263;-78
2022/06/27 04:51:51;;;;;;;7.00;5.50;;;;;;;20.08;68.57;98494.08;105953;1277;137380;-79
2022/06/27 04:54:18;;;;;;;7.90;5.10;;;;;;;20.12;68.50;98493.16;106155;1274;30649;-78
2022/06/27 04:56:46;;;;;;;4.90;4.30;;;;;;;20.16;68.37;98493.48;106542;1274;24240;-78
2022/06/27 04:59:13;;;;;;;10.30;5.20;;;;;;;20.22;68.25;98497.85;106311;1274;138420;-78
2022/06/27 05:01:41;;;;;;;9.60;4.50;;;;;;;20.29;68.14;98496.27;106227;1274;25637;-77
2022/06/27 05:04:12;;;;;;;5.30;4.40;;;;;;;20.34;67.90;98496.66;106365;1274;137747;-78
2022/06/27 05:06:39;;;;;;;4.90;4.40;;;;;;;20.38;67.91;98502.05;106781;1276;22560;-78
2022/06/27 05:09:07;;;;;;;6.80;4.50;;;;;;;20.44;67.85;98502.59;106150;1277;25499;-78
2022/06/27 05:11:35;;;;;;;5.50;5.00;;;;;;;20.51;67.68;98508.19;106086;1277;137562;-78
2022/06/27 05:14:01;;;;;;;7.10;4.50;;;;;;;20.57;67.39;98508.67;106672;1274;25502;-78
2022/06/27 05:16:34;;;;;;;6.80;4.70;;;;;;;20.61;67.11;98511.48;106287;1274;137696;-78
2022/06/27 05:19:02;;;;;;;11.20;4.90;;;;;;;20.67;67.14;98512.48;106628;1274;22547;-78
2022/06/27 05:21:29;;;;;;;6.20;4.40;;;;;;;20.73;66.97;98517.61;106228;1274;23285;-78
2022/06/27 05:23:56;;;;;;;5.10;4.50;;;;;;;20.78;66.72;98516.83;106096;1278;138012;-78
2022/06/27 05:26:23;;;;;;;5.40;4.30;;;;;;;20.85;66.70;98520.05;106458;1277;23916;-78
2022/06/27 05:28:53;;;;;;;7.00;5.30;;;;;;;20.93;66.78;98516.83;106091;1277;137131;-78
2022/06/27 05:31:19;;;;;;;6.70;4.60;;;;;;;20.98;66.30;98519.08;106098;1277;23053;-78
2022/06/27 05:33:46;;;;;;;6.10;4.90;;;;;;;21.03;66.25;98522.52;106195;1277;137420;-78
2022/06/27 05:36:13;;;;;;;8.10;4.70;;;;;;;21.09;65.94;98528.36;106518;1277;22563;-78
2022/06/27 05:38:40;;;;;;;5.00;4.40;;;;;;;21.14;65.94;98527.79;106752;1274;22559;-78
2022/06/27 05:41:10;;;;;;;8.00;4.50;;;;;;;21.19;65.92;98525.45;106849;1277;137428;-78
2022/06/27 05:43:51;;;;;;;6.20;5.10;;;;;;;21.25;65.55;98529.94;106937;1277;22599;-78
2022/06/27 05:46:23;;;;;;;6.20;4.70;;;;;;;21.27;65.28;98531.33;106807;1275;137281;-78
2022/06/27 05:49:04;;;;;;;5.30;4.70;;;;;;;21.30;65.20;98533.41;106584;1277;22580;-78
2022/06/27 05:51:44;;;;;;;4.80;4.10;;;;;;;21.34;65.05;98533.75;106547;1277;137229;-79
2022/06/27 05:54:12;;;;;;;6.10;4.60;;;;;;;21.39;65.05;98532.52;106600;1276;24222;-79
2022/06/27 05:56:39;;;;;;;5.60;4.40;;;;;;;21.49;65.01;98534.70;106430;1274;27662;-78
2022/06/27 05:59:07;;;;;;;5.00;4.20;;;;;;;21.58;64.86;98533.84;106636;1274;137955;-78
2022/06/27 06:01:37;;;;;;;6.60;5.00;;;;;;;21.68;64.46;98535.38;106609;1277;25317;-78
2022/06/27 06:04:05;;;;;;;7.30;4.50;;;;;;;21.77;64.22;98536.74;106624;1277;137429;-78
2022/06/27 06:06:34;;;;;;;5.80;4.20;;;;;;;21.87;64.03;98533.21;106957;1277;22615;-78
2022/06/27 06:09:10;;;;;;;6.90;4.60;;;;;;;21.96;63.93;98534.38;106850;1277;22563;-78
2022/06/27 06:11:38;;;;;;;8.20;5.10;;;;;;;22.05;63.58;98532.04;106886;1276;137215;-77
2022/06/27 06:14:05;;;;;;;6.50;4.70;;;;;;;22.13;63.36;98535.55;107288;1277;25634;-78
2022/06/27 06:16:32;;;;;;;10.00;4.30;;;;;;;22.22;63.48;98535.44;106596;1274;137213;-77
2022/06/27 06:18:59;;;;;;;9.00;4.60;;;;;;;22.31;63.12;98537.56;106542;1275;22573;-78
2022/06/27 06:21:28;;;;;;;11.90;4.40;;;;;;;22.36;62.42;98535.06;106663;1275;22709;-78
2022/06/27 06:23:56;;;;;;;13.40;4.40;;;;;;;22.42;62.34;98534.55;106516;1277;137214;-77
2022/06/27 06:26:22;;;;;;;8.30;4.80;;;;;;;22.49;62.61;98534.71;106241;1277;22616;-77
2022/06/27 06:28:49;;;;;;;10.30;4.60;;;;;;;22.57;62.83;98535.19;106402;1278;137319;-78
2022/06/27 06:31:24;;;;;;;;;;;;;;;22.66;62.51;98538.70;106631;1277;23904;-78
2022/06/27 06:33:57;;;;;;;9.90;4.50;;;;;;;22.74;62.29;98540.52;106341;1277;124739;-78
2022/06/27 06:36:24;;;;;;;9.20;4.20;;;;;;;22.83;62.27;98538.65;106771;1277;24334;-78
2022/06/27 06:38:52;;;;;;;16.70;4.60;;;;;;;22.92;61.95;98536.77;107744;1274;22556;-78
2022/06/27 06:41:20;;;;;;;6.80;4.60;;;;;;;23.03;61.95;98539.09;107498;1274;137372;-78
2022/06/27 06:43:47;;;;;;;10.50;4.30;;;;;;;23.13;61.28;98536.86;107196;1274;22582;-77
2022/06/27 06:46:27;;;;;;;11.30;4.90;;;;;;;23.22;60.77;98539.36;106074;1277;137393;-78
2022/06/27 06:49:05;;;;;;;9.50;4.50;;;;;;;23.31;60.56;98538.90;106196;1278;24292;-79
2022/06/27 06:51:34;;;;;;;5.20;4.30;;;;;;;23.40;60.44;98543.34;107091;1277;22541;-78
2022/06/27 06:54:17;;;;;;;6.80;4.00;;;;;;;23.52;60.18;98536.49;106098;1278;22561;-78
2022/06/27 06:56:52;;;;;;;5.20;4.10;;;;;;;23.61;59.23;98537.78;107467;1274;30329;-78
2022/06/27 06:59:19;;;;;;;4.90;4.20;;;;;;;23.70;59.24;98537.70;106153;1274;137086;-77
2022/06/27 07:01:49;;;;;;;7.10;4.60;;;;;;;23.81;58.92;98537.86;106952;1274;22633;-78
2022/06/27 07:04:16;;;;;;;6.80;4.30;;;;;;;23.92;58.88;98539.30;107812;1274;137996;-78
2022/06/27 07:06:44;;;;;;;5.00;4.50;;;;;;;24.01;58.63;98537.79;106592;1277;22545;-78
2022/06/27 07:09:11;;;;;;;6.10;4.10;;;;;;;24.13;58.20;98535.59;106709;1276;22717;-80
2022/06/27 07:11:53;;;;;;;7.70;4.30;;;;;;;24.26;58.02;98536.74;106465;1277;136971;-77
2022/06/27 07:14:20;;;;;;;6.80;4.60;;;;;;;24.36;57.53;98536.84;106209;1277;24439;-78
2022/06/27 07:16:46;;;;;;;5.90;4.70;;;;;;;24.46;57.36;98534.82;106175;1275;138270;-80
2022/06/27 07:19:14;;;;;;;7.20;4.70;;;;;;;24.57;57.37;98534.62;106155;1278;23003;-78
2022/06/27 07:21:55;;;;;;;7.60;4.30;;;;;;;24.69;57.22;98533.29;105924;1276;137246;-78
2022/06/27 07:24:22;;;;;;;7.60;4.60;;;;;;;24.79;56.64;98536.69;106220;1274;22632;-78
2022/06/27 07:26:49;;;;;;;6.50;4.30;;;;;;;24.86;56.22;98535.86;106066;1278;22683;-78
2022/06/27 07:29:16;;;;;;;8.70;4.30;;;;;;;24.95;56.34;98532.46;105839;1278;137378;-78
2022/06/27 07:31:43;;;;;;;7.30;4.50;;;;;;;25.05;55.61;98528.39;106606;1277;25338;-78
2022/06/27 07:34:11;;;;;;;8.60;4.90;;;;;;;25.14;55.28;98528.82;106201;1277;137332;-78
2022/06/27 07:36:38;;;;;;;7.00;4.50;;;;;;;25.23;54.95;98527.23;106131;1274;24285;-78
2022/06/27 07:39:06;;;;;;;9.20;5.00;;;;;;;25.32;54.70;98526.40;106413;1275;25319;-78
2022/06/27 07:41:32;;;;;;;6.90;4.50;;;;;;;25.42;54.69;98527.09;106588;1274;137135;-78
2022/06/27 07:44:00;;;;;;;7.60;4.90;;;;;;;25.53;54.65;98530.05;107201;1274;22709;-78
2022/06/27 07:46:29;;;;;;;7.20;4.50;;;;;;;25.66;54.36;98528.91;106985;1277;137370;-79
2022/06/27 07:49:10;;;;;;;5.10;3.90;;;;;;;25.80;54.09;98535.55;106675;1278;22566;-79
2022/06/27 07:51:37;;;;;;;6.40;4.80;;;;;;;25.91;53.40;98536.52;105907;1277;137183;-78
2022/06/27 07:54:06;;;;;;;5.80;4.60;;;;;;;26.04;53.11;98538.41;105997;1278;22646;-78
2022/06/27 07:56:34;;;;;;;6.60;4.60;;;;;;;26.21;52.91;98539.36;106172;1277;22693;-79
2022/06/27 07:59:02;;;;;;;12.40;5.40;;;;;;;26.36;52.46;98536.30;106093;1274;137830;-78
2022/06/27 08:01:30;;;;;;;7.30;4.50;;;;;;;26.47;51.60;98535.63;106265;1274;22782;-78
2022/06/27 08:03:57;;;;;;;5.60;4.50;;;;;;;26.59;51.35;98532.01;106024;1274;138277;-78
2022/06/27 08:06:27;;;;;;;6.70;4.60;;;;;;;26.70;51.07;98530.95;105868;1277;447464;-78
2022/06/27 08:09:01;;;;;;;5.10;4.60;;;;;;;26.81;50.45;98535.05;106502;1276;22544;-78
2022/06/27 08:11:30;;;;;;;5.90;5.10;;;;;;;26.91;50.36;98532.38;106283;1277;137245;-79
2022/06/27 08:14:18;;;;;;;9.00;5.30;;;;;;;27.04;50.34;98538.39;106418;1277;22618;-78
2022/06/27 08:17:00;;;;;;;7.60;5.20;;;;;;;27.17;49.81;98539.08;106339;1274;137258;-78
2022/06/27 08:19:27;;;;;;;8.30;5.50;;;;;;;27.26;49.27;98539.07;106432;1274;25876;-79
2022/06/27 08:21:54;;;;;;;9.10;5.30;;;;;;;27.38;49.35;98533.99;106647;1274;137381;-78
2022/06/27 08:24:21;;;;;;;7.10;5.40;;;;;;;27.50;48.57;98532.40;106289;1278;22572;-78
2022/06/27 08:27:04;;;;;;;8.20;5.60;;;;;;;27.64;48.86;98529.77;106123;1274;24211;-80
2022/06/27 08:29:32;;;;;;;9.40;5.60;;;;;;;27.79;48.52;98532.02;106068;1277;137188;-79
2022/06/27 08:31:59;;;;;;;9.30;5.40;;;;;;;27.92;48.06;98529.80;106275;1277;24076;-78
2022/06/27 08:34:26;;;;;;;6.30;5.40;;;;;;;28.02;47.85;98533.63;106217;1277;137295;-78
2022/06/27 08:36:53;;;;;;;10.50;5.10;;;;;;;28.20;48.10;98536.70;106552;1274;22884;-79
2022/06/27 08:39:19;;;;;;;6.90;5.40;;;;;;;28.38;47.40;98538.70;106384;1277;24322;-79
2022/06/27 08:41:47;;;;;;;8.00;5.20;;;;;;;28.55;46.66;98541.36;106179;1275;137579;-78
2022/06/27 08:44:14;;;;;;;8.30;5.60;;;;;;;28.71;46.36;98540.39;106225;1277;24453;-78
2022/06/27 08:46:45;;;;;;;7.00;5.10;;;;;;;28.82;45.33;98536.98;106391;1274;137263;-78
2022/06/27 08:49:14;;;;;;;8.70;5.70;;;;;;;28.92;45.47;98530.31;105982;1277;30597;-78
2022/06/27 08:51:43;;;;;;;5.80;5.20;;;;;;;29.02;45.08;98533.88;106134;1277;137736;-78
2022/06/27 08:54:13;;;;;;;8.50;5.20;;;;;;;29.10;44.78;98532.86;106013;1277;22727;-80
2022/06/27 08:56:40;;;;;;;6.90;5.30;;;;;;;29.18;44.60;98532.02;106722;1277;25435;-79
2022/06/27 08:59:08;;;;;;;10.00;5.30;;;;;;;29.29;44.70;98535.24;106357;1274;137520;-79
2022/06/27 09:01:36;;;;;;;7.30;5.20;;;;;;;29.42;43.96;98533.02;106715;1272;25730;-79
2022/06/27 09:04:06;;;;;;;8.40;5.10;;;;;;;29.56;43.80;98530.73;106428;1274;137672;-79
2022/06/27 09:06:52;;;;;;;8.50;5.20;;;;;;;29.65;43.55;98530.52;106479;1276;22617;-79
2022/06/27 09:09:20;;;;;;;8.20;4.70;;;;;;;29.76;42.75;98524.63;106168;1277;25368;-79
2022/06/27 09:12:05;;;;;;;9.00;5.30;;;;;;;29.85;42.29;98526.41;106416;1277;24491;-79
2022/06/27 09:14:41;;;;;;;6.40;4.60;;;;;;;29.96;42.84;98524.38;106155;1277;22646;-79
2022/06/27 09:17:15;;;;;;;4.70;4.20;;;;;;;30.13;42.53;98525.55;106270;1275;137583;-79
2022/06/27 09:19:52;;;;;;;7.00;4.40;;;;;;;30.24;41.51;98521.73;106476;1277;30401;-79
2022/06/27 09:22:21;;;;;;;6.00;4.50;;;;;;;30.33;41.87;98520.70;106285;1277;137720;-80
2022/06/27 09:25:01;;;;;;;7.40;4.60;;;;;;;30.43;41.76;98519.77;106229;1277;24345;-79
2022/06/27 09:27:50;;;;;;;5.70;4.60;;;;;;;30.60;41.70;98522.13;106446;1277;25373;-79
2022/06/27 09:30:31;;;;;;;7.30;4.90;;;;;;;30.80;41.12;98517.28;107545;1277;31462;-78
2022/06/27 09:33:04;;;;;;;7.50;4.70;;;;;;;30.98;40.42;98513.55;106571;1277;22608;-79
2022/06/27 09:35:38;;;;;;;11.90;5.40;;;;;;;31.12;39.95;98511.49;106656;1277;139499;-78
2022/06/27 09:38:11;;;;;;;8.00;4.90;;;;;;;31.28;39.95;98512.83;106377;1277;22713;-78
2022/06/27 09:40:49;;;;;;;9.50;5.30;;;;;;;31.47;39.86;98508.46;106981;1274;137287;-78
2022/06/27 09:43:22;;;;;;;7.20;5.10;;;;;;;31.62;39.68;98505.29;106374;1277;23916;-78
2022/06/27 09:45:50;;;;;;;7.00;4.70;;;;;;;31.80;39.43;98506.38;106187;1277;137952;-78
2022/06/27 09:48:17;;;;;;;7.50;5.50;;;;;;;31.93;39.02;98504.02;106380;1276;22569;-79
2022/06/27 09:50:47;;;;;;;9.80;5.70;;;;;;;32.00;38.13;98509.08;106360;1274;23917;-81
2022/06/27 09:53:14;;;;;;;5.10;4.70;;;;;;;32.09;37.98;98509.25;106538;1274;137524;-81
2022/06/27 09:55:43;;;;;;;6.00;4.80;;;;;;;32.19;37.44;98507.33;106835;1274;24423;-81
2022/06/27 09:58:11;;;;;;;5.50;4.60;;;;;;;32.29;37.46;98504.76;106568;1274;137286;-81
2022/06/27 10:00:53;;;;;;;6.40;4.80;;;;;;;32.50;37.29;98506.63;106400;1277;25560;-80
2022/06/27 10:03:36;;;;;;;7.30;5.00;;;;;;;32.70;36.73;98505.42;106719;1277;25562;-81
2022/06/27 10:06:19;;;;;;;8.10;4.50;;;;;;;32.86;36.25;98507.39;106482;1277;22548;-80
2022/06/27 10:08:48;;;;;;;7.30;4.60;;;;;;;32.95;35.88;98505.10;106687;1277;22627;-83
2022/06/27 10:11:15;;;;;;;10.00;4.60;;;;;;;33.00;35.77;98503.83;106518;1274;137138;-86
2022/06/27 10:14:17;;;;;;;5.10;4.60;;;;;;;33.02;35.81;98503.52;106570;1274;25310;-79
2022/06/27 10:16:59;;;;;;;8.10;5.30;;;;;;;33.12;36.10;98495.52;106645;1274;137471;-81
2022/06/27 10:19:27;;;;;;;7.80;5.00;;;;;;;33.20;35.73;98493.16;106307;1277;23230;-81
2022/06/27 10:21:56;;;;;;;6.50;5.30;;;;;;;33.26;35.03;98490.36;106449;1277;137282;-80
2022/06/27 10:24:26;;;;;;;6.90;5.10;;;;;;;33.35;35.01;98488.70;106358;1277;22621;-81
2022/06/27 10:26:59;;;;;;;6.30;4.40;;;;;;;33.41;34.85;98485.89;106744;1277;23342;-80
2022/06/27 10:29:34;;;;;;;5.00;4.40;;;;;;;33.48;34.65;98485.20;106508;1277;137060;-81
2022/06/27 10:32:06;;;;;;;7.00;4.40;;;;;;;33.58;34.57;98484.17;106393;1274;24408;-81
2022/06/27 10:34:43;;;;;;;9.80;4.30;;;;;;;33.71;34.73;98484.71;106327;1274;137037;-80
2022/06/27 10:37:26;;;;;;;6.30;4.30;;;;;;;33.82;34.64;98482.65;106505;1274;25368;-80
2022/06/27 10:40:13;;;;;;;6.80;4.10;;;;;;;33.92;33.02;98478.46;106785;1277;137826;-80
2022/06/27 10:42:56;;;;;;;8.30;5.20;;;;;;;34.09;32.48;98476.30;106594;1277;22700;-80
2022/06/27 10:45:26;;;;;;;10.20;4.70;;;;;;;34.18;32.95;98476.72;106312;1277;24276;-80
2022/06/27 10:47:55;;;;;;;8.30;4.60;;;;;;;34.28;32.78;98472.61;106529;1277;137123;-80
2022/06/27 10:50:23;;;;;;;5.50;4.80;;;;;;;34.41;33.24;98469.95;106495;1277;25317;-80
2022/06/27 10:53:10;;;;;;;6.00;4.60;;;;;;;34.53;32.78;98469.85;107199;1274;137150;-80
2022/06/27 10:55:37;;;;;;;5.90;4.70;;;;;;;34.70;32.36;98472.11;106830;1274;24324;-79
2022/06/27 10:58:25;;;;;;;7.70;4.80;;;;;;;34.74;32.17;98472.19;106638;1274;137371;-79
2022/06/27 11:00:51;;;;;;;5.60;4.20;;;;;;;34.77;31.53;98466.27;106822;1274;22579;-79
2022/06/27 11:03:22;;;;;;;7.50;4.80;;;;;;;34.80;31.52;98463.84;106840;1275;22556;-78
2022/06/27 11:05:58;;;;;;;5.60;4.50;;;;;;;34.91;31.86;98458.89;106286;1277;138702;-78
2022/06/27 11:08:27;;;;;;;;;;;;;;;34.96;31.32;98458.45;106756;1277;22718;-78
2022/06/27 11:10:54;;;;;;;5.80;4.30;;;;;;;34.97;31.06;98449.48;106511;1277;123783;-77
2022/06/27 11:13:38;;;;;;;10.50;4.30;;;;;;;35.07;31.28;98449.37;106956;1274;22561;-80
2022/06/27 11:16:06;;;;;;;10.30;4.20;;;;;;;35.30;31.16;98441.91;106244;1276;138184;-81
2022/06/27 11:18:54;;;;;;;6.80;3.60;;;;;;;35.49;31.08;98438.66;106608;1274;22569;-80
2022/06/27 11:21:23;;;;;;;6.90;4.40;;;;;;;35.70;30.41;98437.34;106435;1274;24318;-80
2022/06/27 11:24:03;;;;;;;5.50;3.90;;;;;;;35.87;30.08;98435.28;106587;1276;137612;-79
2022/06/27 11:26:49;;;;;;;6.00;3.70;;;;;;;35.96;29.07;98434.98;106230;1277;23705;-81
2022/06/27 11:32:05;;;;;;;4.50;4.10;;;;;;;36.02;27.92;98436.39;106211;1277;22721;-80
2022/06/27 11:34:34;;;;;;;7.70;4.30;;;;;;;36.05;27.74;98434.25;106263;1277;137368;-80
2022/06/27 11:37:07;;;;;;;6.20;3.80;;;;;;;36.09;26.64;98430.89;106459;1274;24380;-82
2022/06/27 11:39:35;;;;;;;4.50;4.10;;;;;;;36.06;26.91;98429.23;106284;1274;22679;-80
2022/06/27 11:42:09;;;;;;;7.00;4.30;;;;;;;36.15;26.99;98426.63;106967;1274;22564;-82